Impacts METAR Board
IDs:

KPIT - Pittsburgh Intl, PA, US

Updated at: 0700 UTC 24 Jun 2018
Potential Impact None Slight Moderate High
Time 23/19Z 23/20Z 23/21Z 23/22Z 23/23Z 24/00Z 24/01Z 24/02Z 24/03Z 24/04Z 24/05Z 24/06Z 24/07Z
Temp78 72 74 73 70 71 71 71 70 70 69 69 68
Dewpt63 66 67 66 67 67 67 67 67 67 67 65 65
Altim29.75 29.76 29.76 29.76 29.77 29.79 29.80 29.82 29.83 29.83 29.83 29.84 29.85
VIS10 3 10 10 10 10 10 10 10 8 10 10 10
CIG40 26 40 55 100 100 100 55 60 55 65 130 130
CoverBKNBKNBKNBKNBKNBKNBKNBKNOVCOVCBKNBKNOVC
FltCatVFRMVFRVFRVFRVFRVFRVFRVFRVFRVFRVFRVFRVFR
WX--RA---RA-----------RA------
WDir240320250220240260210220210240220230220
WSpd9 12 4 7 8 4 4 3 4 3 4 5 5
WGst-- -- -- -- -- -- -- -- -- -- -- -- --
Raw hourly METARs
KPIT 231851Z 24009KT 10SM SCT025 BKN040 BKN120 26/17 A2975 RMK AO2 LTG DSNT N SLP072 MDT CU VCSH W-N T02560172
KPIT 231951Z 32012KT 3SM R28R/4500VP6000FT RA BKN026 BKN040 BKN120 22/19 A2976 RMK AO2 RAB11 SLP079 P0000 T02220189
KPIT 232051Z 25004KT 10SM FEW020 BKN040 BKN090 23/19 A2976 RMK AO2 RAE26 SLP078 P0031 60031 T02330194 56000 $
KPIT 232151Z 22007KT 10SM -RA FEW008 SCT018CB BKN055 BKN130 23/19 A2976 RMK AO2 RAB40 SLP078 CB E MOV NE P0000 T02280189 $
KPIT 232251Z 24008KT 10SM SCT026 SCT065 BKN100 21/19 A2977 RMK AO2 RAE02B18E49 SLP082 P0001 T02110194 $
KPIT 232351Z 26004KT 10SM FEW025 SCT055 BKN100 22/19 A2979 RMK AO2 SLP087 60032 T02170194 10256 20206 53009 $
KPIT 240051Z 21004KT 10SM FEW025 SCT040 BKN100 22/19 A2980 RMK AO2 SLP091 T02170194 $
KPIT 240151Z 22003KT 10SM BKN055 BKN100 22/19 A2982 RMK AO2 SLP096 T02170194 $
KPIT 240251Z 21004KT 10SM BKN060 OVC100 21/19 A2983 RMK AO2 RAB00E34 SLP100 P0002 60002 T02110194 51012 $
KPIT 240351Z 24003KT 8SM -RA SCT037 OVC055 21/19 A2983 RMK AO2 RAB04 SLP099 P0004 T02110194 $
KPIT 240451Z 22004KT 10SM BKN065 BKN110 21/19 A2983 RMK AO2 RAE08 SLP099 P0000 T02060194 402560178
KPIT 240551Z 23005KT 10SM SCT055 BKN130 BKN220 21/18 A2984 RMK AO2 SLP104 60006 T02060183 10217 20206 53005
KPIT 240651Z 22005KT 10SM FEW047 OVC130 20/18 A2985 RMK AO2 SLP105 T02000183



Page loaded:  07:19 UTC  |   12:19 AM Pacific  |   01:19 AM Mountain  |   02:19 AM Central  |   03:19 AM Eastern

 

ADVISORIES

FORECASTS

FORECASTS

OBSERVATIONS

USER TOOLS

ABOUT US